sensor_id;sensor_type;location;lat;lon;timestamp;P1;durP1;ratioP1;P2;durP2;ratioP2
17921;SDS011;9086;50.966;3.144;2023-03-23T00:01:20;2.70;;;1.80;;
17921;SDS011;9086;50.966;3.144;2023-03-23T00:03:47;1.80;;;1.57;;
17921;SDS011;9086;50.966;3.144;2023-03-23T00:06:13;2.37;;;1.37;;
17921;SDS011;9086;50.966;3.144;2023-03-23T00:08:42;1.73;;;1.60;;
17921;SDS011;9086;50.966;3.144;2023-03-23T00:11:16;1.97;;;1.57;;
17921;SDS011;9086;50.966;3.144;2023-03-23T00:13:43;2.57;;;1.60;;
17921;SDS011;9086;50.966;3.144;2023-03-23T00:16:10;2.67;;;1.97;;
17921;SDS011;9086;50.966;3.144;2023-03-23T00:18:46;1.43;;;1.20;;
17921;SDS011;9086;50.966;3.144;2023-03-23T00:21:12;1.60;;;1.50;;
17921;SDS011;9086;50.966;3.144;2023-03-23T00:23:39;1.90;;;1.70;;
17921;SDS011;9086;50.966;3.144;2023-03-23T00:26:05;2.10;;;1.90;;
17921;SDS011;9086;50.966;3.144;2023-03-23T00:28:31;1.70;;;1.50;;
17921;SDS011;9086;50.966;3.144;2023-03-23T00:30:58;3.43;;;1.90;;
17921;SDS011;9086;50.966;3.144;2023-03-23T00:33:25;2.83;;;1.67;;
17921;SDS011;9086;50.966;3.144;2023-03-23T00:35:52;4.70;;;2.00;;
17921;SDS011;9086;50.966;3.144;2023-03-23T00:38:19;3.80;;;1.80;;
17921;SDS011;9086;50.966;3.144;2023-03-23T00:40:45;1.97;;;1.60;;
17921;SDS011;9086;50.966;3.144;2023-03-23T00:43:12;3.40;;;1.40;;
17921;SDS011;9086;50.966;3.144;2023-03-23T00:45:39;3.97;;;1.77;;
17921;SDS011;9086;50.966;3.144;2023-03-23T00:48:05;1.90;;;1.60;;
17921;SDS011;9086;50.966;3.144;2023-03-23T00:50:31;3.00;;;1.77;;
17921;SDS011;9086;50.966;3.144;2023-03-23T00:52:57;2.43;;;1.50;;
17921;SDS011;9086;50.966;3.144;2023-03-23T00:55:24;3.30;;;1.50;;
17921;SDS011;9086;50.966;3.144;2023-03-23T00:57:51;3.27;;;1.63;;
17921;SDS011;9086;50.966;3.144;2023-03-23T01:00:17;2.27;;;1.53;;
17921;SDS011;9086;50.966;3.144;2023-03-23T01:02:44;1.97;;;1.33;;
17921;SDS011;9086;50.966;3.144;2023-03-23T01:05:10;1.70;;;1.30;;
17921;SDS011;9086;50.966;3.144;2023-03-23T01:07:37;1.73;;;1.63;;
17921;SDS011;9086;50.966;3.144;2023-03-23T01:10:03;1.47;;;1.20;;
17921;SDS011;9086;50.966;3.144;2023-03-23T01:12:30;2.17;;;1.73;;
17921;SDS011;9086;50.966;3.144;2023-03-23T01:14:55;1.70;;;1.40;;
17921;SDS011;9086;50.966;3.144;2023-03-23T01:17:21;3.43;;;1.43;;
17921;SDS011;9086;50.966;3.144;2023-03-23T01:19:47;2.30;;;1.30;;
17921;SDS011;9086;50.966;3.144;2023-03-23T01:22:14;2.13;;;1.60;;
17921;SDS011;9086;50.966;3.144;2023-03-23T01:24:40;1.10;;;0.93;;
17921;SDS011;9086;50.966;3.144;2023-03-23T01:27:06;1.23;;;1.17;;
17921;SDS011;9086;50.966;3.144;2023-03-23T01:29:33;1.47;;;1.37;;
17921;SDS011;9086;50.966;3.144;2023-03-23T01:31:59;2.10;;;1.40;;
17921;SDS011;9086;50.966;3.144;2023-03-23T01:34:25;1.97;;;1.30;;
17921;SDS011;9086;50.966;3.144;2023-03-23T01:36:51;1.20;;;1.10;;
17921;SDS011;9086;50.966;3.144;2023-03-23T01:39:17;1.47;;;1.37;;
17921;SDS011;9086;50.966;3.144;2023-03-23T01:41:43;1.63;;;1.10;;
17921;SDS011;9086;50.966;3.144;2023-03-23T01:46:38;1.40;;;1.30;;
17921;SDS011;9086;50.966;3.144;2023-03-23T01:49:09;2.50;;;1.23;;
17921;SDS011;9086;50.966;3.144;2023-03-23T01:51:37;2.03;;;1.20;;
17921;SDS011;9086;50.966;3.144;2023-03-23T01:54:05;3.47;;;1.40;;
17921;SDS011;9086;50.966;3.144;2023-03-23T01:56:34;1.30;;;1.20;;
17921;SDS011;9086;50.966;3.144;2023-03-23T01:59:05;1.80;;;1.20;;
17921;SDS011;9086;50.966;3.144;2023-03-23T02:01:32;2.23;;;1.23;;
17921;SDS011;9086;50.966;3.144;2023-03-23T02:04:01;2.80;;;1.00;;
17921;SDS011;9086;50.966;3.144;2023-03-23T02:06:27;1.67;;;1.17;;
17921;SDS011;9086;50.966;3.144;2023-03-23T02:08:53;3.87;;;1.60;;
17921;SDS011;9086;50.966;3.144;2023-03-23T02:11:21;1.87;;;1.07;;
17921;SDS011;9086;50.966;3.144;2023-03-23T02:13:47;2.93;;;1.50;;
17921;SDS011;9086;50.966;3.144;2023-03-23T02:31:28;2.40;;;1.20;;
17921;SDS011;9086;50.966;3.144;2023-03-23T02:36:35;5.40;;;1.47;;
17921;SDS011;9086;50.966;3.144;2023-03-23T02:39:05;4.27;;;1.50;;
17921;SDS011;9086;50.966;3.144;2023-03-23T02:42:09;4.80;;;1.40;;
17921;SDS011;9086;50.966;3.144;2023-03-23T02:44:27;4.37;;;1.20;;
17921;SDS011;9086;50.966;3.144;2023-03-23T02:46:55;2.50;;;1.20;;
17921;SDS011;9086;50.966;3.144;2023-03-23T02:49:22;4.90;;;1.63;;
17921;SDS011;9086;50.966;3.144;2023-03-23T02:51:49;2.63;;;1.30;;
17921;SDS011;9086;50.966;3.144;2023-03-23T02:54:15;6.27;;;1.70;;
17921;SDS011;9086;50.966;3.144;2023-03-23T02:56:43;4.07;;;1.27;;
17921;SDS011;9086;50.966;3.144;2023-03-23T02:59:09;6.37;;;1.97;;
17921;SDS011;9086;50.966;3.144;2023-03-23T03:04:10;2.37;;;0.90;;
17921;SDS011;9086;50.966;3.144;2023-03-23T03:06:50;4.77;;;1.53;;
17921;SDS011;9086;50.966;3.144;2023-03-23T03:09:23;9.03;;;2.10;;
17921;SDS011;9086;50.966;3.144;2023-03-23T03:11:53;4.83;;;1.70;;
17921;SDS011;9086;50.966;3.144;2023-03-23T03:14:22;3.47;;;1.80;;
17921;SDS011;9086;50.966;3.144;2023-03-23T03:16:52;6.00;;;1.67;;
17921;SDS011;9086;50.966;3.144;2023-03-23T03:21:50;3.63;;;1.60;;
17921;SDS011;9086;50.966;3.144;2023-03-23T03:24:18;5.63;;;1.87;;
17921;SDS011;9086;50.966;3.144;2023-03-23T03:26:47;6.03;;;1.73;;
17921;SDS011;9086;50.966;3.144;2023-03-23T03:29:15;3.37;;;1.40;;
17921;SDS011;9086;50.966;3.144;2023-03-23T03:31:44;5.07;;;1.30;;
17921;SDS011;9086;50.966;3.144;2023-03-23T03:34:12;4.40;;;1.80;;
17921;SDS011;9086;50.966;3.144;2023-03-23T03:36:42;4.47;;;1.90;;
17921;SDS011;9086;50.966;3.144;2023-03-23T03:39:10;4.87;;;1.60;;
17921;SDS011;9086;50.966;3.144;2023-03-23T03:41:37;3.87;;;1.20;;
17921;SDS011;9086;50.966;3.144;2023-03-23T03:44:04;4.53;;;1.40;;
17921;SDS011;9086;50.966;3.144;2023-03-23T03:46:31;4.90;;;1.73;;
17921;SDS011;9086;50.966;3.144;2023-03-23T03:48:57;5.43;;;1.90;;
17921;SDS011;9086;50.966;3.144;2023-03-23T03:51:23;2.93;;;1.50;;
17921;SDS011;9086;50.966;3.144;2023-03-23T03:53:50;5.23;;;2.03;;
17921;SDS011;9086;50.966;3.144;2023-03-23T03:56:16;6.53;;;2.13;;
17921;SDS011;9086;50.966;3.144;2023-03-23T03:58:42;6.90;;;1.70;;
17921;SDS011;9086;50.966;3.144;2023-03-23T04:01:09;5.43;;;2.27;;
17921;SDS011;9086;50.966;3.144;2023-03-23T04:03:35;5.10;;;1.73;;
17921;SDS011;9086;50.966;3.144;2023-03-23T04:06:01;5.97;;;1.50;;
17921;SDS011;9086;50.966;3.144;2023-03-23T04:08:28;8.10;;;1.77;;
17921;SDS011;9086;50.966;3.144;2023-03-23T04:10:54;11.60;;;2.17;;
17921;SDS011;9086;50.966;3.144;2023-03-23T04:13:20;7.50;;;2.53;;
17921;SDS011;9086;50.966;3.144;2023-03-23T04:15:47;4.50;;;1.90;;
17921;SDS011;9086;50.966;3.144;2023-03-23T04:18:13;4.60;;;1.30;;
17921;SDS011;9086;50.966;3.144;2023-03-23T04:20:42;5.93;;;2.00;;
17921;SDS011;9086;50.966;3.144;2023-03-23T04:23:09;9.50;;;1.97;;
17921;SDS011;9086;50.966;3.144;2023-03-23T04:25:35;6.87;;;1.90;;
17921;SDS011;9086;50.966;3.144;2023-03-23T04:28:02;4.80;;;1.70;;
17921;SDS011;9086;50.966;3.144;2023-03-23T04:30:28;6.13;;;1.80;;
17921;SDS011;9086;50.966;3.144;2023-03-23T04:32:55;3.37;;;1.60;;
17921;SDS011;9086;50.966;3.144;2023-03-23T04:35:24;6.90;;;1.70;;
17921;SDS011;9086;50.966;3.144;2023-03-23T04:37:51;4.73;;;1.80;;
17921;SDS011;9086;50.966;3.144;2023-03-23T04:40:18;9.73;;;2.30;;
17921;SDS011;9086;50.966;3.144;2023-03-23T04:42:44;12.63;;;2.43;;
17921;SDS011;9086;50.966;3.144;2023-03-23T04:45:12;8.73;;;2.23;;
17921;SDS011;9086;50.966;3.144;2023-03-23T04:47:39;6.93;;;2.47;;
17921;SDS011;9086;50.966;3.144;2023-03-23T04:50:14;8.20;;;2.30;;
17921;SDS011;9086;50.966;3.144;2023-03-23T04:52:40;6.70;;;2.10;;
17921;SDS011;9086;50.966;3.144;2023-03-23T04:55:10;10.07;;;2.30;;
17921;SDS011;9086;50.966;3.144;2023-03-23T04:57:36;6.93;;;2.40;;
17921;SDS011;9086;50.966;3.144;2023-03-23T05:00:03;4.97;;;2.13;;
17921;SDS011;9086;50.966;3.144;2023-03-23T05:02:36;6.57;;;2.67;;
17921;SDS011;9086;50.966;3.144;2023-03-23T05:05:04;10.17;;;2.10;;
17921;SDS011;9086;50.966;3.144;2023-03-23T05:07:30;5.47;;;1.87;;
17921;SDS011;9086;50.966;3.144;2023-03-23T05:09:56;5.97;;;2.03;;
17921;SDS011;9086;50.966;3.144;2023-03-23T05:12:22;7.43;;;2.03;;
17921;SDS011;9086;50.966;3.144;2023-03-23T05:14:48;6.80;;;1.80;;
17921;SDS011;9086;50.966;3.144;2023-03-23T05:17:14;7.43;;;2.30;;
17921;SDS011;9086;50.966;3.144;2023-03-23T05:19:42;6.67;;;2.00;;
17921;SDS011;9086;50.966;3.144;2023-03-23T05:22:12;6.13;;;1.93;;
17921;SDS011;9086;50.966;3.144;2023-03-23T05:24:39;6.03;;;1.60;;
17921;SDS011;9086;50.966;3.144;2023-03-23T05:27:05;3.33;;;1.30;;
17921;SDS011;9086;50.966;3.144;2023-03-23T05:29:33;4.17;;;1.40;;
17921;SDS011;9086;50.966;3.144;2023-03-23T05:32:04;4.87;;;1.20;;
17921;SDS011;9086;50.966;3.144;2023-03-23T05:34:31;4.73;;;1.60;;
17921;SDS011;9086;50.966;3.144;2023-03-23T05:37:00;2.83;;;1.20;;
17921;SDS011;9086;50.966;3.144;2023-03-23T05:39:27;5.57;;;1.40;;
17921;SDS011;9086;50.966;3.144;2023-03-23T05:41:54;5.73;;;1.50;;
17921;SDS011;9086;50.966;3.144;2023-03-23T05:44:20;2.40;;;0.93;;
17921;SDS011;9086;50.966;3.144;2023-03-23T05:46:46;3.33;;;1.00;;
17921;SDS011;9086;50.966;3.144;2023-03-23T05:49:13;3.67;;;0.97;;
17921;SDS011;9086;50.966;3.144;2023-03-23T05:51:41;1.97;;;1.10;;
17921;SDS011;9086;50.966;3.144;2023-03-23T05:54:07;4.17;;;1.03;;
17921;SDS011;9086;50.966;3.144;2023-03-23T05:56:33;3.03;;;1.03;;
17921;SDS011;9086;50.966;3.144;2023-03-23T05:59:00;5.00;;;1.43;;
17921;SDS011;9086;50.966;3.144;2023-03-23T06:01:27;2.00;;;1.00;;
17921;SDS011;9086;50.966;3.144;2023-03-23T06:03:53;3.57;;;1.20;;
17921;SDS011;9086;50.966;3.144;2023-03-23T06:06:23;4.00;;;1.27;;
17921;SDS011;9086;50.966;3.144;2023-03-23T06:08:49;3.17;;;1.67;;
17921;SDS011;9086;50.966;3.144;2023-03-23T06:11:15;1.47;;;0.80;;
17921;SDS011;9086;50.966;3.144;2023-03-23T06:13:42;4.17;;;1.23;;
17921;SDS011;9086;50.966;3.144;2023-03-23T06:16:09;6.00;;;1.40;;
17921;SDS011;9086;50.966;3.144;2023-03-23T06:18:35;1.43;;;0.80;;
17921;SDS011;9086;50.966;3.144;2023-03-23T06:21:02;2.43;;;0.70;;
17921;SDS011;9086;50.966;3.144;2023-03-23T06:23:28;2.77;;;0.73;;
17921;SDS011;9086;50.966;3.144;2023-03-23T06:25:55;6.80;;;1.47;;
17921;SDS011;9086;50.966;3.144;2023-03-23T06:28:23;3.90;;;1.20;;
17921;SDS011;9086;50.966;3.144;2023-03-23T06:30:50;3.87;;;1.20;;
17921;SDS011;9086;50.966;3.144;2023-03-23T06:33:17;2.43;;;0.93;;
17921;SDS011;9086;50.966;3.144;2023-03-23T06:35:43;4.10;;;1.23;;
17921;SDS011;9086;50.966;3.144;2023-03-23T06:38:09;2.60;;;0.77;;
17921;SDS011;9086;50.966;3.144;2023-03-23T06:40:35;2.43;;;1.23;;
17921;SDS011;9086;50.966;3.144;2023-03-23T06:43:02;4.03;;;1.40;;
17921;SDS011;9086;50.966;3.144;2023-03-23T06:45:29;2.33;;;0.87;;
17921;SDS011;9086;50.966;3.144;2023-03-23T06:47:55;2.20;;;1.13;;
17921;SDS011;9086;50.966;3.144;2023-03-23T06:50:21;2.70;;;1.50;;
17921;SDS011;9086;50.966;3.144;2023-03-23T06:52:49;2.80;;;1.03;;
17921;SDS011;9086;50.966;3.144;2023-03-23T06:55:16;6.53;;;1.47;;
17921;SDS011;9086;50.966;3.144;2023-03-23T06:57:42;5.43;;;1.53;;
17921;SDS011;9086;50.966;3.144;2023-03-23T07:00:09;2.90;;;1.00;;
17921;SDS011;9086;50.966;3.144;2023-03-23T07:02:42;3.07;;;1.13;;
17921;SDS011;9086;50.966;3.144;2023-03-23T07:05:09;7.07;;;1.40;;
17921;SDS011;9086;50.966;3.144;2023-03-23T07:07:36;3.10;;;1.00;;
17921;SDS011;9086;50.966;3.144;2023-03-23T07:10:03;3.53;;;1.33;;
17921;SDS011;9086;50.966;3.144;2023-03-23T07:12:29;2.93;;;1.10;;
17921;SDS011;9086;50.966;3.144;2023-03-23T07:14:55;4.20;;;1.37;;
17921;SDS011;9086;50.966;3.144;2023-03-23T07:17:21;4.83;;;1.27;;
17921;SDS011;9086;50.966;3.144;2023-03-23T07:19:47;3.67;;;1.60;;
17921;SDS011;9086;50.966;3.144;2023-03-23T07:22:13;3.83;;;1.07;;
17921;SDS011;9086;50.966;3.144;2023-03-23T07:24:39;3.17;;;1.30;;
17921;SDS011;9086;50.966;3.144;2023-03-23T07:27:05;3.43;;;1.17;;
17921;SDS011;9086;50.966;3.144;2023-03-23T07:29:32;3.00;;;0.93;;
17921;SDS011;9086;50.966;3.144;2023-03-23T07:32:00;2.60;;;1.10;;
17921;SDS011;9086;50.966;3.144;2023-03-23T07:34:26;2.93;;;0.97;;
17921;SDS011;9086;50.966;3.144;2023-03-23T07:36:53;2.10;;;1.10;;
17921;SDS011;9086;50.966;3.144;2023-03-23T07:39:19;5.00;;;1.73;;
17921;SDS011;9086;50.966;3.144;2023-03-23T07:41:45;4.23;;;0.80;;
17921;SDS011;9086;50.966;3.144;2023-03-23T07:44:11;3.60;;;1.13;;
17921;SDS011;9086;50.966;3.144;2023-03-23T07:46:37;3.80;;;1.13;;
17921;SDS011;9086;50.966;3.144;2023-03-23T07:49:03;6.13;;;1.20;;
17921;SDS011;9086;50.966;3.144;2023-03-23T07:51:30;5.33;;;1.20;;
17921;SDS011;9086;50.966;3.144;2023-03-23T07:53:57;4.27;;;1.30;;
17921;SDS011;9086;50.966;3.144;2023-03-23T07:56:23;3.73;;;1.13;;
17921;SDS011;9086;50.966;3.144;2023-03-23T07:58:50;4.70;;;1.93;;
17921;SDS011;9086;50.966;3.144;2023-03-23T08:01:16;7.53;;;1.33;;
17921;SDS011;9086;50.966;3.144;2023-03-23T08:03:43;3.83;;;1.40;;
17921;SDS011;9086;50.966;3.144;2023-03-23T08:06:09;5.47;;;1.80;;
17921;SDS011;9086;50.966;3.144;2023-03-23T08:08:35;5.13;;;1.70;;
17921;SDS011;9086;50.966;3.144;2023-03-23T08:11:02;5.77;;;2.03;;
17921;SDS011;9086;50.966;3.144;2023-03-23T08:13:28;4.53;;;1.50;;
17921;SDS011;9086;50.966;3.144;2023-03-23T08:15:54;4.47;;;1.50;;
17921;SDS011;9086;50.966;3.144;2023-03-23T08:18:21;4.27;;;1.33;;
17921;SDS011;9086;50.966;3.144;2023-03-23T08:20:47;7.43;;;1.67;;
17921;SDS011;9086;50.966;3.144;2023-03-23T08:23:14;6.23;;;1.73;;
17921;SDS011;9086;50.966;3.144;2023-03-23T08:25:41;6.53;;;1.70;;
17921;SDS011;9086;50.966;3.144;2023-03-23T08:28:08;5.03;;;1.83;;
17921;SDS011;9086;50.966;3.144;2023-03-23T08:30:34;4.77;;;1.30;;
17921;SDS011;9086;50.966;3.144;2023-03-23T08:33:02;3.37;;;1.47;;
17921;SDS011;9086;50.966;3.144;2023-03-23T08:35:29;4.77;;;1.47;;
17921;SDS011;9086;50.966;3.144;2023-03-23T08:37:56;3.60;;;1.57;;
17921;SDS011;9086;50.966;3.144;2023-03-23T08:40:22;4.57;;;1.40;;
17921;SDS011;9086;50.966;3.144;2023-03-23T08:42:49;4.17;;;1.00;;
17921;SDS011;9086;50.966;3.144;2023-03-23T08:45:17;4.57;;;1.60;;
17921;SDS011;9086;50.966;3.144;2023-03-23T08:47:43;2.93;;;1.27;;
17921;SDS011;9086;50.966;3.144;2023-03-23T08:50:11;4.60;;;1.53;;
17921;SDS011;9086;50.966;3.144;2023-03-23T08:52:37;4.20;;;1.80;;
17921;SDS011;9086;50.966;3.144;2023-03-23T08:55:04;4.70;;;1.60;;
17921;SDS011;9086;50.966;3.144;2023-03-23T08:57:30;6.27;;;1.50;;
17921;SDS011;9086;50.966;3.144;2023-03-23T08:59:56;2.43;;;1.00;;
17921;SDS011;9086;50.966;3.144;2023-03-23T09:02:28;5.63;;;1.40;;
17921;SDS011;9086;50.966;3.144;2023-03-23T09:04:56;5.20;;;1.57;;
17921;SDS011;9086;50.966;3.144;2023-03-23T09:07:22;3.63;;;2.07;;
17921;SDS011;9086;50.966;3.144;2023-03-23T09:09:48;3.17;;;1.30;;
17921;SDS011;9086;50.966;3.144;2023-03-23T09:12:14;6.50;;;1.50;;
17921;SDS011;9086;50.966;3.144;2023-03-23T09:14:40;4.83;;;1.43;;
17921;SDS011;9086;50.966;3.144;2023-03-23T09:17:06;4.67;;;1.70;;
17921;SDS011;9086;50.966;3.144;2023-03-23T09:19:33;3.53;;;1.60;;
17921;SDS011;9086;50.966;3.144;2023-03-23T09:22:00;3.40;;;1.40;;
17921;SDS011;9086;50.966;3.144;2023-03-23T09:24:26;4.20;;;1.60;;
17921;SDS011;9086;50.966;3.144;2023-03-23T09:26:52;4.73;;;1.53;;
17921;SDS011;9086;50.966;3.144;2023-03-23T09:29:18;7.07;;;1.37;;
17921;SDS011;9086;50.966;3.144;2023-03-23T09:31:45;6.80;;;2.13;;
17921;SDS011;9086;50.966;3.144;2023-03-23T09:34:13;6.37;;;1.80;;
17921;SDS011;9086;50.966;3.144;2023-03-23T09:36:43;3.87;;;1.47;;
17921;SDS011;9086;50.966;3.144;2023-03-23T09:39:09;6.53;;;2.60;;
17921;SDS011;9086;50.966;3.144;2023-03-23T09:41:58;8.03;;;1.90;;
17921;SDS011;9086;50.966;3.144;2023-03-23T09:47:21;7.97;;;1.90;;
17921;SDS011;9086;50.966;3.144;2023-03-23T09:49:57;6.13;;;1.50;;
17921;SDS011;9086;50.966;3.144;2023-03-23T09:52:26;3.97;;;1.80;;
17921;SDS011;9086;50.966;3.144;2023-03-23T09:54:53;8.17;;;2.17;;
17921;SDS011;9086;50.966;3.144;2023-03-23T09:59:57;7.50;;;2.17;;
17921;SDS011;9086;50.966;3.144;2023-03-23T10:02:36;4.07;;;1.57;;
17921;SDS011;9086;50.966;3.144;2023-03-23T10:05:17;6.30;;;1.87;;
17921;SDS011;9086;50.966;3.144;2023-03-23T10:07:44;4.83;;;2.10;;
17921;SDS011;9086;50.966;3.144;2023-03-23T10:10:12;4.97;;;1.90;;
17921;SDS011;9086;50.966;3.144;2023-03-23T10:12:42;5.67;;;2.10;;
17921;SDS011;9086;50.966;3.144;2023-03-23T10:15:15;7.37;;;2.30;;
17921;SDS011;9086;50.966;3.144;2023-03-23T10:17:44;7.87;;;2.00;;
17921;SDS011;9086;50.966;3.144;2023-03-23T10:22:41;7.40;;;2.13;;
17921;SDS011;9086;50.966;3.144;2023-03-23T10:27:49;5.87;;;1.80;;
17921;SDS011;9086;50.966;3.144;2023-03-23T10:32:58;4.97;;;2.10;;
17921;SDS011;9086;50.966;3.144;2023-03-23T10:35:28;6.90;;;2.10;;
17921;SDS011;9086;50.966;3.144;2023-03-23T10:37:57;5.73;;;2.27;;
17921;SDS011;9086;50.966;3.144;2023-03-23T10:40:26;5.90;;;2.17;;
17921;SDS011;9086;50.966;3.144;2023-03-23T10:42:54;8.60;;;2.43;;
17921;SDS011;9086;50.966;3.144;2023-03-23T10:45:21;8.60;;;2.73;;
17921;SDS011;9086;50.966;3.144;2023-03-23T10:47:54;6.53;;;2.63;;
17921;SDS011;9086;50.966;3.144;2023-03-23T10:50:22;6.03;;;1.97;;
17921;SDS011;9086;50.966;3.144;2023-03-23T10:52:49;4.63;;;2.20;;
17921;SDS011;9086;50.966;3.144;2023-03-23T10:55:17;9.03;;;3.13;;
17921;SDS011;9086;50.966;3.144;2023-03-23T10:57:58;6.23;;;2.03;;
17921;SDS011;9086;50.966;3.144;2023-03-23T11:00:25;7.33;;;2.40;;
17921;SDS011;9086;50.966;3.144;2023-03-23T11:03:26;9.80;;;2.43;;
17921;SDS011;9086;50.966;3.144;2023-03-23T11:05:53;7.50;;;2.50;;
17921;SDS011;9086;50.966;3.144;2023-03-23T11:08:23;8.00;;;2.50;;
17921;SDS011;9086;50.966;3.144;2023-03-23T11:10:54;11.77;;;3.07;;
17921;SDS011;9086;50.966;3.144;2023-03-23T11:13:22;6.57;;;2.63;;
17921;SDS011;9086;50.966;3.144;2023-03-23T11:15:50;10.73;;;2.80;;
17921;SDS011;9086;50.966;3.144;2023-03-23T11:18:20;9.57;;;2.40;;
17921;SDS011;9086;50.966;3.144;2023-03-23T11:20:54;8.70;;;2.10;;
17921;SDS011;9086;50.966;3.144;2023-03-23T11:23:26;8.17;;;2.10;;
17921;SDS011;9086;50.966;3.144;2023-03-23T11:25:57;7.63;;;2.40;;
17921;SDS011;9086;50.966;3.144;2023-03-23T11:28:28;7.37;;;2.27;;
17921;SDS011;9086;50.966;3.144;2023-03-23T11:30:55;7.20;;;1.93;;
17921;SDS011;9086;50.966;3.144;2023-03-23T11:33:22;8.37;;;2.70;;
17921;SDS011;9086;50.966;3.144;2023-03-23T11:35:50;11.03;;;2.93;;
17921;SDS011;9086;50.966;3.144;2023-03-23T11:38:18;6.07;;;2.67;;
17921;SDS011;9086;50.966;3.144;2023-03-23T11:40:49;10.57;;;2.83;;
17921;SDS011;9086;50.966;3.144;2023-03-23T11:43:19;10.43;;;2.60;;
17921;SDS011;9086;50.966;3.144;2023-03-23T11:45:56;7.40;;;2.67;;
17921;SDS011;9086;50.966;3.144;2023-03-23T11:53:37;10.20;;;2.53;;
17921;SDS011;9086;50.966;3.144;2023-03-23T11:58:35;7.20;;;2.30;;
17921;SDS011;9086;50.966;3.144;2023-03-23T12:01:04;11.53;;;3.20;;
17921;SDS011;9086;50.966;3.144;2023-03-23T12:03:51;10.63;;;2.80;;
17921;SDS011;9086;50.966;3.144;2023-03-23T12:11:45;8.23;;;2.57;;
17921;SDS011;9086;50.966;3.144;2023-03-23T12:14:30;5.97;;;2.63;;
17921;SDS011;9086;50.966;3.144;2023-03-23T12:17:03;7.17;;;2.13;;
17921;SDS011;9086;50.966;3.144;2023-03-23T12:19:33;8.87;;;2.50;;
17921;SDS011;9086;50.966;3.144;2023-03-23T12:24:42;12.00;;;3.47;;
17921;SDS011;9086;50.966;3.144;2023-03-23T12:29:40;8.07;;;2.53;;
17921;SDS011;9086;50.966;3.144;2023-03-23T12:32:23;9.67;;;2.57;;
17921;SDS011;9086;50.966;3.144;2023-03-23T12:37:38;7.33;;;2.60;;
17921;SDS011;9086;50.966;3.144;2023-03-23T12:45:53;8.87;;;2.93;;
17921;SDS011;9086;50.966;3.144;2023-03-23T12:48:24;7.70;;;2.63;;
17921;SDS011;9086;50.966;3.144;2023-03-23T12:53:35;10.20;;;2.63;;
17921;SDS011;9086;50.966;3.144;2023-03-23T12:58:29;8.80;;;2.63;;
17921;SDS011;9086;50.966;3.144;2023-03-23T13:00:58;7.27;;;2.33;;
17921;SDS011;9086;50.966;3.144;2023-03-23T13:03:28;8.63;;;2.27;;
17921;SDS011;9086;50.966;3.144;2023-03-23T13:06:03;8.03;;;2.63;;
17921;SDS011;9086;50.966;3.144;2023-03-23T13:08:35;9.90;;;3.17;;
17921;SDS011;9086;50.966;3.144;2023-03-23T13:11:08;7.90;;;2.63;;
17921;SDS011;9086;50.966;3.144;2023-03-23T13:13:49;7.90;;;2.30;;
17921;SDS011;9086;50.966;3.144;2023-03-23T13:21:38;10.30;;;3.17;;
17921;SDS011;9086;50.966;3.144;2023-03-23T13:24:12;11.93;;;2.83;;
17921;SDS011;9086;50.966;3.144;2023-03-23T13:26:40;10.33;;;2.97;;
17921;SDS011;9086;50.966;3.144;2023-03-23T13:31:37;8.23;;;2.93;;
17921;SDS011;9086;50.966;3.144;2023-03-23T13:36:33;10.23;;;2.57;;
17921;SDS011;9086;50.966;3.144;2023-03-23T13:39:01;9.23;;;2.87;;
17921;SDS011;9086;50.966;3.144;2023-03-23T13:41:29;8.97;;;3.00;;
17921;SDS011;9086;50.966;3.144;2023-03-23T13:44:07;6.73;;;2.37;;
17921;SDS011;9086;50.966;3.144;2023-03-23T13:46:40;14.20;;;3.30;;
17921;SDS011;9086;50.966;3.144;2023-03-23T13:54:46;9.13;;;2.17;;
17921;SDS011;9086;50.966;3.144;2023-03-23T13:56:54;10.40;;;3.00;;
17921;SDS011;9086;50.966;3.144;2023-03-23T14:01:56;8.20;;;2.03;;
17921;SDS011;9086;50.966;3.144;2023-03-23T14:04:23;7.10;;;2.20;;
17921;SDS011;9086;50.966;3.144;2023-03-23T14:07:07;8.77;;;2.27;;
17921;SDS011;9086;50.966;3.144;2023-03-23T14:09:37;8.27;;;2.43;;
17921;SDS011;9086;50.966;3.144;2023-03-23T14:12:05;8.80;;;2.60;;
17921;SDS011;9086;50.966;3.144;2023-03-23T14:14:49;5.80;;;1.70;;
17921;SDS011;9086;50.966;3.144;2023-03-23T14:17:25;8.80;;;3.17;;
17921;SDS011;9086;50.966;3.144;2023-03-23T14:19:52;6.70;;;2.53;;
17921;SDS011;9086;50.966;3.144;2023-03-23T14:22:26;6.00;;;1.80;;
17921;SDS011;9086;50.966;3.144;2023-03-23T14:24:58;8.37;;;2.60;;
17921;SDS011;9086;50.966;3.144;2023-03-23T14:27:25;5.43;;;2.27;;
17921;SDS011;9086;50.966;3.144;2023-03-23T14:30:03;6.53;;;1.80;;
17921;SDS011;9086;50.966;3.144;2023-03-23T14:32:30;8.20;;;2.57;;
17921;SDS011;9086;50.966;3.144;2023-03-23T14:34:57;6.90;;;2.40;;
17921;SDS011;9086;50.966;3.144;2023-03-23T14:37:24;9.73;;;2.47;;
17921;SDS011;9086;50.966;3.144;2023-03-23T14:39:52;6.97;;;2.43;;
17921;SDS011;9086;50.966;3.144;2023-03-23T14:42:25;7.70;;;1.90;;
17921;SDS011;9086;50.966;3.144;2023-03-23T14:44:52;12.27;;;2.63;;
17921;SDS011;9086;50.966;3.144;2023-03-23T14:47:19;7.33;;;2.43;;
17921;SDS011;9086;50.966;3.144;2023-03-23T14:49:46;9.87;;;2.93;;
17921;SDS011;9086;50.966;3.144;2023-03-23T14:52:17;7.90;;;2.40;;
17921;SDS011;9086;50.966;3.144;2023-03-23T14:54:44;8.27;;;2.47;;
17921;SDS011;9086;50.966;3.144;2023-03-23T14:57:18;8.70;;;2.73;;
17921;SDS011;9086;50.966;3.144;2023-03-23T14:59:45;8.00;;;2.37;;
17921;SDS011;9086;50.966;3.144;2023-03-23T15:02:13;7.87;;;2.87;;
17921;SDS011;9086;50.966;3.144;2023-03-23T15:04:40;7.33;;;2.70;;
17921;SDS011;9086;50.966;3.144;2023-03-23T15:07:06;7.77;;;2.43;;
17921;SDS011;9086;50.966;3.144;2023-03-23T15:09:34;6.43;;;2.53;;
17921;SDS011;9086;50.966;3.144;2023-03-23T15:12:04;10.50;;;2.30;;
17921;SDS011;9086;50.966;3.144;2023-03-23T15:14:49;6.13;;;2.30;;
17921;SDS011;9086;50.966;3.144;2023-03-23T15:17:22;6.73;;;2.40;;
17921;SDS011;9086;50.966;3.144;2023-03-23T15:19:49;6.00;;;2.43;;
17921;SDS011;9086;50.966;3.144;2023-03-23T15:22:18;10.13;;;3.00;;
17921;SDS011;9086;50.966;3.144;2023-03-23T15:24:45;9.33;;;2.47;;
17921;SDS011;9086;50.966;3.144;2023-03-23T15:27:17;11.63;;;2.87;;
17921;SDS011;9086;50.966;3.144;2023-03-23T15:29:50;9.80;;;2.60;;
17921;SDS011;9086;50.966;3.144;2023-03-23T15:32:20;6.53;;;2.70;;
17921;SDS011;9086;50.966;3.144;2023-03-23T15:34:46;9.30;;;2.60;;
17921;SDS011;9086;50.966;3.144;2023-03-23T15:37:29;10.50;;;2.47;;
17921;SDS011;9086;50.966;3.144;2023-03-23T15:39:56;7.73;;;2.37;;
17921;SDS011;9086;50.966;3.144;2023-03-23T15:45:24;7.80;;;2.13;;
17921;SDS011;9086;50.966;3.144;2023-03-23T15:50:15;8.77;;;2.40;;
17921;SDS011;9086;50.966;3.144;2023-03-23T15:52:41;7.03;;;2.63;;
17921;SDS011;9086;50.966;3.144;2023-03-23T15:55:27;6.23;;;2.33;;
17921;SDS011;9086;50.966;3.144;2023-03-23T15:57:53;6.53;;;2.33;;
17921;SDS011;9086;50.966;3.144;2023-03-23T16:00:20;6.53;;;2.30;;
17921;SDS011;9086;50.966;3.144;2023-03-23T16:02:48;8.90;;;3.23;;
17921;SDS011;9086;50.966;3.144;2023-03-23T16:05:15;4.50;;;1.70;;
17921;SDS011;9086;50.966;3.144;2023-03-23T16:07:41;6.53;;;1.90;;
17921;SDS011;9086;50.966;3.144;2023-03-23T16:10:13;5.73;;;1.90;;
17921;SDS011;9086;50.966;3.144;2023-03-23T16:12:39;6.43;;;2.27;;
17921;SDS011;9086;50.966;3.144;2023-03-23T16:15:06;6.17;;;1.73;;
17921;SDS011;9086;50.966;3.144;2023-03-23T16:17:33;5.90;;;1.70;;
17921;SDS011;9086;50.966;3.144;2023-03-23T16:19:59;8.37;;;2.20;;
17921;SDS011;9086;50.966;3.144;2023-03-23T16:22:25;6.23;;;2.07;;
17921;SDS011;9086;50.966;3.144;2023-03-23T16:24:51;4.33;;;1.63;;
17921;SDS011;9086;50.966;3.144;2023-03-23T16:27:17;7.67;;;1.90;;
17921;SDS011;9086;50.966;3.144;2023-03-23T16:29:45;7.03;;;1.90;;
17921;SDS011;9086;50.966;3.144;2023-03-23T16:32:11;5.27;;;2.43;;
17921;SDS011;9086;50.966;3.144;2023-03-23T16:34:37;7.97;;;2.13;;
17921;SDS011;9086;50.966;3.144;2023-03-23T16:37:03;9.47;;;2.30;;
17921;SDS011;9086;50.966;3.144;2023-03-23T16:39:30;6.53;;;2.20;;
17921;SDS011;9086;50.966;3.144;2023-03-23T16:41:56;7.77;;;2.37;;